createdAt,value
2016-02-06T00:00:02.108Z,996.31
2016-02-06T00:01:02.111Z,996.26
2016-02-06T00:02:02.099Z,996.25
2016-02-06T00:03:02.102Z,996.21
2016-02-06T00:04:02.089Z,996.18
2016-02-06T00:05:02.091Z,996.2
2016-02-06T00:06:02.093Z,996.13
2016-02-06T00:07:02.097Z,996.08
2016-02-06T00:08:02.087Z,996.07
2016-02-06T00:09:02.090Z,996.02
2016-02-06T00:10:02.092Z,996.07
2016-02-06T00:11:02.079Z,995.99
2016-02-06T00:12:02.065Z,995.96
2016-02-06T00:13:02.069Z,996.02
2016-02-06T00:14:02.072Z,996
2016-02-06T00:15:02.060Z,996.02
2016-02-06T00:16:02.063Z,995.98
2016-02-06T00:17:02.066Z,996
2016-02-06T00:18:02.052Z,995.95
2016-02-06T00:19:02.055Z,995.97
2016-02-06T00:20:02.057Z,995.95
2016-02-06T00:21:02.062Z,995.97
2016-02-06T00:22:02.033Z,995.95
2016-02-06T00:23:02.051Z,995.97
2016-02-06T00:24:02.039Z,995.99
2016-02-06T00:25:02.057Z,996
2016-02-06T00:26:02.044Z,995.99
2016-02-06T00:27:02.032Z,995.98
2016-02-06T00:28:02.018Z,995.98
2016-02-06T00:29:02.021Z,995.96
2016-02-06T00:30:02.023Z,995.95
2016-02-06T00:31:02.012Z,995.96
2016-02-06T00:32:02.014Z,995.91
2016-02-06T00:33:02.018Z,995.88
2016-02-06T00:34:02.009Z,995.86
2016-02-06T00:35:01.996Z,995.86
2016-02-06T00:36:01.999Z,995.84
2016-02-06T00:37:02.002Z,995.81
2016-02-06T00:38:01.990Z,995.84
2016-02-06T00:39:01.993Z,995.82
2016-02-06T00:40:01.979Z,995.81
2016-02-06T00:41:01.982Z,995.82
2016-02-06T00:42:01.969Z,995.84
2016-02-06T00:43:01.973Z,995.84
2016-02-06T00:44:01.975Z,995.85
2016-02-06T00:45:01.962Z,995.87
2016-02-06T00:46:01.968Z,995.87
2016-02-06T00:47:01.971Z,995.86
2016-02-06T00:48:01.958Z,995.87
2016-02-06T00:49:01.960Z,995.84
2016-02-06T00:50:01.948Z,995.79
2016-02-06T00:51:01.951Z,995.84
2016-02-06T00:52:01.953Z,995.79
2016-02-06T00:53:01.940Z,995.74
2016-02-06T00:54:01.960Z,995.72
2016-02-06T00:55:01.946Z,995.66
2016-02-06T00:56:01.949Z,995.71
2016-02-06T00:57:01.952Z,995.69
2016-02-06T00:58:01.938Z,995.65
2016-02-06T00:59:01.957Z,995.63
2016-02-06T01:00:01.944Z,995.64
2016-02-06T01:01:01.915Z,995.63
2016-02-06T01:02:01.934Z,995.62
2016-02-06T01:03:01.920Z,995.59
2016-02-06T01:04:01.934Z,995.56
2016-02-06T01:05:01.915Z,995.58
2016-02-06T01:06:01.903Z,995.56
2016-02-06T01:07:01.907Z,995.53
2016-02-06T01:08:01.894Z,995.48
2016-02-06T01:09:01.897Z,995.46
2016-02-06T01:10:01.900Z,995.44
2016-02-06T01:11:01.903Z,995.46
2016-02-06T01:12:01.889Z,995.47
2016-02-06T01:13:01.891Z,995.5
2016-02-06T01:14:01.896Z,995.43
2016-02-06T01:15:01.992Z,995.44
2016-02-06T01:16:01.901Z,995.41
2016-02-06T01:17:01.893Z,995.41
2016-02-06T01:18:01.880Z,995.46
2016-02-06T01:19:01.883Z,995.46
2016-02-06T01:20:01.869Z,995.43
2016-02-06T01:21:01.872Z,995.46
2016-02-06T01:22:01.860Z,995.42
2016-02-06T01:23:01.862Z,995.5
2016-02-06T01:24:01.849Z,995.52
2016-02-06T01:25:01.852Z,995.52
2016-02-06T01:26:01.854Z,995.55
2016-02-06T01:27:01.843Z,995.54
2016-02-06T01:28:01.846Z,995.53
2016-02-06T01:29:01.848Z,995.49
2016-02-06T01:30:01.836Z,995.45
2016-02-06T01:31:01.838Z,995.48
2016-02-06T01:32:01.825Z,995.52
2016-02-06T01:33:01.819Z,995.43
2016-02-06T01:34:01.823Z,995.5
2016-02-06T01:35:01.826Z,995.49
2016-02-06T01:36:01.814Z,995.51
2016-02-06T01:37:01.816Z,995.5
2016-02-06T01:38:01.819Z,995.47
2016-02-06T01:39:01.806Z,995.41
2016-02-06T01:40:01.809Z,995.38
2016-02-06T01:41:01.796Z,995.36
2016-02-06T01:42:01.799Z,995.33
2016-02-06T01:43:01.785Z,995.3
2016-02-06T01:44:01.789Z,995.3
2016-02-06T01:45:01.791Z,995.31
2016-02-06T01:46:01.794Z,995.3
2016-02-06T01:47:01.780Z,995.29
2016-02-06T01:48:01.783Z,995.3
2016-02-06T01:49:01.771Z,995.28
2016-02-06T01:50:01.774Z,995.3
2016-02-06T01:51:01.760Z,995.28
2016-02-06T01:52:01.763Z,995.28
2016-02-06T01:53:01.765Z,995.26
2016-02-06T01:54:01.752Z,995.29
2016-02-06T01:55:01.755Z,995.28
2016-02-06T01:56:01.743Z,995.25
2016-02-06T01:57:01.745Z,995.3
2016-02-06T01:58:01.748Z,995.25
2016-02-06T01:59:01.734Z,995.28
2016-02-06T02:00:01.738Z,995.28
2016-02-06T02:01:01.726Z,995.26
2016-02-06T02:02:01.729Z,995.26
2016-02-06T02:03:01.715Z,995.23
2016-02-06T02:04:01.719Z,995.24
2016-02-06T02:05:01.722Z,995.15
2016-02-06T02:06:01.709Z,995.16
2016-02-06T02:07:01.711Z,995.09
2016-02-06T02:08:01.699Z,995.12
2016-02-06T02:09:01.701Z,995.08
2016-02-06T02:10:01.705Z,995.04
2016-02-06T02:11:01.691Z,994.97
2016-02-06T02:12:01.694Z,994.96
2016-02-06T02:13:01.683Z,994.89
2016-02-06T02:14:01.686Z,994.94
2016-02-06T02:15:01.704Z,994.88
2016-02-06T02:16:01.691Z,994.85
2016-02-06T02:17:01.694Z,994.86
2016-02-06T02:18:01.681Z,994.83
2016-02-06T02:19:01.668Z,994.85
2016-02-06T02:20:01.655Z,994.85
2016-02-06T02:21:01.658Z,994.87
2016-02-06T02:22:01.660Z,994.87
2016-02-06T02:23:01.648Z,994.84
2016-02-06T02:24:01.650Z,994.86
2016-02-06T02:25:01.653Z,994.81
2016-02-06T02:26:01.645Z,994.84
2016-02-06T02:27:01.647Z,994.82
2016-02-06T02:28:01.634Z,994.8
2016-02-06T02:29:01.636Z,994.79
2016-02-06T02:30:01.639Z,994.79
2016-02-06T02:31:01.616Z,994.78
2016-02-06T02:32:01.620Z,994.79
2016-02-06T02:33:01.623Z,994.76
2016-02-06T02:34:01.607Z,994.72
2016-02-06T02:35:01.610Z,994.76
2016-02-06T02:36:01.612Z,994.76
2016-02-06T02:37:01.600Z,994.77
2016-02-06T02:38:01.602Z,994.71
2016-02-06T02:39:01.590Z,994.7
2016-02-06T02:40:01.593Z,994.77
2016-02-06T02:41:01.581Z,994.74
2016-02-06T02:42:01.584Z,994.72
2016-02-06T02:43:01.571Z,994.74
2016-02-06T02:44:01.573Z,994.74
2016-02-06T02:45:01.560Z,994.7
2016-02-06T02:46:01.563Z,994.72
2016-02-06T02:47:01.567Z,994.64
2016-02-06T02:48:01.554Z,994.61
2016-02-06T02:49:01.557Z,994.59
2016-02-06T02:50:01.543Z,994.5
2016-02-06T02:51:01.562Z,994.47
2016-02-06T02:52:01.533Z,994.43
2016-02-06T02:53:01.536Z,994.37
2016-02-06T02:54:01.538Z,994.46
2016-02-06T02:55:01.526Z,994.37
2016-02-06T02:56:01.528Z,994.32
2016-02-06T02:57:01.516Z,994.34
2016-02-06T02:58:01.518Z,994.34
2016-02-06T02:59:01.521Z,994.29
2016-02-06T03:00:01.509Z,994.3
2016-02-06T03:01:01.512Z,994.32
2016-02-06T03:02:01.499Z,994.33
2016-02-06T03:03:01.502Z,994.3
2016-02-06T03:04:01.493Z,994.29
2016-02-06T03:05:01.496Z,994.27
2016-02-06T03:06:01.483Z,994.27
2016-02-06T03:07:01.487Z,994.29
2016-02-06T03:08:01.490Z,994.22
2016-02-06T03:09:01.477Z,994.21
2016-02-06T03:10:01.464Z,994.25
2016-02-06T03:11:01.467Z,994.2
2016-02-06T03:12:01.470Z,994.16
2016-02-06T03:13:01.458Z,994.18
2016-02-06T03:14:01.461Z,994.2
2016-02-06T03:15:01.465Z,994.22
2016-02-06T03:16:01.451Z,994.14
2016-02-06T03:17:01.455Z,994.1
2016-02-06T03:18:01.441Z,994.11
2016-02-06T03:19:01.444Z,994.12
2016-02-06T03:20:01.433Z,994.08
2016-02-06T03:21:01.436Z,994.09
2016-02-06T03:22:01.422Z,994.09
2016-02-06T03:23:01.426Z,994.06
2016-02-06T03:24:01.428Z,994.08
2016-02-06T03:25:01.431Z,994.09
2016-02-06T03:26:01.417Z,994.02
2016-02-06T03:27:01.405Z,994
2016-02-06T03:28:01.409Z,993.98
2016-02-06T03:29:01.412Z,993.99
2016-02-06T03:30:01.398Z,993.95
2016-02-06T03:31:01.401Z,993.97
2016-02-06T03:32:01.388Z,994.03
2016-02-06T03:33:01.393Z,994.04
2016-02-06T03:34:01.395Z,994.04
2016-02-06T03:35:01.384Z,994
2016-02-06T03:36:01.386Z,994.05
2016-02-06T03:37:01.374Z,994.06
2016-02-06T03:38:01.376Z,994.07
2016-02-06T03:39:01.378Z,994.05
2016-02-06T03:40:01.381Z,994.04
2016-02-06T03:41:01.387Z,994.02
2016-02-06T03:42:01.359Z,994.01
2016-02-06T03:43:01.362Z,993.99
2016-02-06T03:44:01.379Z,993.97
2016-02-06T03:45:01.367Z,993.93
2016-02-06T03:46:01.354Z,993.94
2016-02-06T03:47:01.372Z,993.95
2016-02-06T03:48:01.344Z,993.93
2016-02-06T03:49:01.347Z,993.96
2016-02-06T03:50:01.333Z,993.97
2016-02-06T03:51:01.336Z,993.98
2016-02-06T03:52:01.323Z,993.94
2016-02-06T03:53:01.344Z,993.93
2016-02-06T03:54:01.331Z,993.93
2016-02-06T03:55:01.319Z,994
2016-02-06T03:56:01.321Z,993.96
2016-02-06T03:57:01.308Z,993.96
2016-02-06T03:58:01.311Z,993.96
2016-02-06T03:59:01.297Z,993.97
2016-02-06T04:00:01.300Z,993.93
2016-02-06T04:01:01.306Z,993.93
2016-02-06T04:02:01.311Z,993.88
2016-02-06T04:03:01.283Z,993.86
2016-02-06T04:04:01.286Z,993.89
2016-02-06T04:05:01.288Z,993.85
2016-02-06T04:06:01.278Z,993.89
2016-02-06T04:07:01.266Z,993.89
2016-02-06T04:08:01.269Z,993.85
2016-02-06T04:09:01.255Z,993.82
2016-02-06T04:10:01.258Z,993.83
2016-02-06T04:11:01.261Z,993.75
2016-02-06T04:12:01.248Z,993.74
2016-02-06T04:13:01.250Z,993.75
2016-02-06T04:14:01.240Z,993.71
2016-02-06T04:15:01.242Z,993.74
2016-02-06T04:16:01.229Z,993.76
2016-02-06T04:17:01.263Z,993.74
2016-02-06T04:18:01.282Z,993.75
2016-02-06T04:19:01.256Z,993.73
2016-02-06T04:20:01.259Z,993.79
2016-02-06T04:21:01.245Z,993.77
2016-02-06T04:22:01.219Z,993.78
2016-02-06T04:23:01.205Z,993.75
2016-02-06T04:24:01.209Z,993.74
2016-02-06T04:25:01.196Z,993.76
2016-02-06T04:26:01.199Z,993.78
2016-02-06T04:27:01.201Z,993.78
2016-02-06T04:28:01.188Z,993.76
2016-02-06T04:29:01.175Z,993.8
2016-02-06T04:30:01.180Z,993.76
2016-02-06T04:31:01.182Z,993.73
2016-02-06T04:32:01.170Z,993.69
2016-02-06T04:33:01.173Z,993.7
2016-02-06T04:34:01.176Z,993.66
2016-02-06T04:35:01.162Z,993.64
2016-02-06T04:36:01.149Z,993.62
2016-02-06T04:37:01.151Z,993.59
2016-02-06T04:38:01.155Z,993.58
2016-02-06T04:39:01.142Z,993.59
2016-02-06T04:40:01.146Z,993.6
2016-02-06T04:41:01.132Z,993.55
2016-02-06T04:42:01.135Z,993.53
2016-02-06T04:43:01.122Z,993.49
2016-02-06T04:44:01.125Z,993.49
2016-02-06T04:45:01.127Z,993.51
2016-02-06T04:46:01.115Z,993.47
2016-02-06T04:47:01.118Z,993.45
2016-02-06T04:48:01.121Z,993.42
2016-02-06T04:49:01.108Z,993.46
2016-02-06T04:50:01.111Z,993.41
2016-02-06T04:51:01.098Z,993.4
2016-02-06T04:52:01.101Z,993.41
2016-02-06T04:53:01.090Z,993.41
2016-02-06T04:54:01.092Z,993.36
2016-02-06T04:55:01.082Z,993.32
2016-02-06T04:56:01.070Z,993.28
2016-02-06T04:57:01.072Z,993.29
2016-02-06T04:58:01.075Z,993.26
2016-02-06T04:59:01.073Z,993.28
2016-02-06T05:00:01.060Z,993.27
2016-02-06T05:01:01.062Z,993.24
2016-02-06T05:02:01.049Z,993.24
2016-02-06T05:03:01.051Z,993.21
2016-02-06T05:04:01.055Z,993.23
2016-02-06T05:05:01.042Z,993.22
2016-02-06T05:06:01.045Z,993.18
2016-02-06T05:07:01.031Z,993.2
2016-02-06T05:08:01.036Z,993.17
2016-02-06T05:09:01.023Z,993.21
2016-02-06T05:10:01.027Z,993.18
2016-02-06T05:11:01.029Z,993.22
2016-02-06T05:12:01.016Z,993.23
2016-02-06T05:13:01.019Z,993.25
2016-02-06T05:14:01.006Z,993.23
2016-02-06T05:15:01.009Z,993.24
2016-02-06T05:16:00.997Z,993.23
2016-02-06T05:17:00.999Z,993.21
2016-02-06T05:18:01.002Z,993.21
2016-02-06T05:19:00.988Z,993.2
2016-02-06T05:20:00.991Z,993.23
2016-02-06T05:21:00.995Z,993.16
2016-02-06T05:22:01.013Z,993.23
2016-02-06T05:23:00.984Z,993.17
2016-02-06T05:24:00.972Z,993.2
2016-02-06T05:25:00.975Z,993.16
2016-02-06T05:26:00.981Z,993.21
2016-02-06T05:27:00.998Z,993.24
2016-02-06T05:28:00.969Z,993.18
2016-02-06T05:29:00.952Z,993.22
2016-02-06T05:30:00.941Z,993.23
2016-02-06T05:31:00.943Z,993.19
2016-02-06T05:32:00.945Z,993.15
2016-02-06T05:33:00.932Z,993.21
2016-02-06T05:34:00.953Z,993.15
2016-02-06T05:35:00.925Z,993.17
2016-02-06T05:36:00.928Z,993.18
2016-02-06T05:37:00.930Z,993.23
2016-02-06T05:38:00.916Z,993.21
2016-02-06T05:39:00.919Z,993.18
2016-02-06T05:40:00.923Z,993.18
2016-02-06T05:41:00.912Z,993.15
2016-02-06T05:42:00.899Z,993.16
2016-02-06T05:43:00.886Z,993.14
2016-02-06T05:44:00.889Z,993.12
2016-02-06T05:45:00.892Z,993.1
2016-02-06T05:46:00.876Z,993.1
2016-02-06T05:47:00.879Z,993.15
2016-02-06T05:48:00.867Z,993.17
2016-02-06T05:49:00.871Z,993.04
2016-02-06T05:50:00.857Z,993.03
2016-02-06T05:51:00.844Z,993.04
2016-02-06T05:52:00.847Z,993.12
2016-02-06T05:53:00.834Z,993.05
2016-02-06T05:54:00.839Z,993
2016-02-06T05:55:00.857Z,992.89
2016-02-06T05:56:00.828Z,992.97
2016-02-06T05:57:00.816Z,993.02
2016-02-06T05:58:00.819Z,993.09
2016-02-06T05:59:00.819Z,993.04
2016-02-06T06:00:00.806Z,993.04
2016-02-06T06:01:00.809Z,992.99
2016-02-06T06:02:00.798Z,992.99
2016-02-06T06:03:00.785Z,993.12
2016-02-06T06:04:00.788Z,993.04
2016-02-06T06:05:00.790Z,993.11
2016-02-06T06:06:00.777Z,993.12
2016-02-06T06:07:00.764Z,993.09
2016-02-06T06:08:00.767Z,993.12
2016-02-06T06:09:00.754Z,993.14
2016-02-06T06:10:00.757Z,993.13
2016-02-06T06:11:00.743Z,993.16
2016-02-06T06:12:00.746Z,993.15
2016-02-06T06:13:00.749Z,993.18
2016-02-06T06:14:00.737Z,993.16
2016-02-06T06:15:00.739Z,993.16
2016-02-06T06:16:00.742Z,993.14
2016-02-06T06:17:00.728Z,993.15
2016-02-06T06:18:00.716Z,993.19
2016-02-06T06:19:00.718Z,993.13
2016-02-06T06:20:00.709Z,993.25
2016-02-06T06:21:00.711Z,993.19
2016-02-06T06:22:00.699Z,993.2
2016-02-06T06:23:00.702Z,993.15
2016-02-06T06:24:00.689Z,993.15
2016-02-06T06:25:00.691Z,993.15
2016-02-06T06:26:00.694Z,993.11
2016-02-06T06:27:00.682Z,993.21
2016-02-06T06:28:00.673Z,993.07
2016-02-06T06:29:00.675Z,993.06
2016-02-06T06:30:00.682Z,993.01
2016-02-06T06:31:00.668Z,992.92
2016-02-06T06:32:00.656Z,993.02
2016-02-06T06:33:00.674Z,992.98
2016-02-06T06:34:00.662Z,993
2016-02-06T06:35:00.664Z,993.06
2016-02-06T06:36:00.635Z,993.12
2016-02-06T06:37:00.637Z,993.08
2016-02-06T06:38:00.625Z,993.13
2016-02-06T06:39:00.628Z,993.09
2016-02-06T06:40:00.631Z,993.11
2016-02-06T06:41:00.618Z,993.13
2016-02-06T06:42:00.621Z,993.16
2016-02-06T06:43:00.608Z,993.22
2016-02-06T06:44:00.611Z,993.21
2016-02-06T06:45:00.613Z,993.2
2016-02-06T06:46:00.616Z,993.16
2016-02-06T06:47:00.587Z,993.2
2016-02-06T06:48:00.594Z,993.19
2016-02-06T06:49:00.613Z,993.23
2016-02-06T06:50:00.583Z,993.17
2016-02-06T06:51:00.571Z,993.16
2016-02-06T06:52:00.575Z,993.16
2016-02-06T06:53:00.578Z,993.17
2016-02-06T06:54:00.565Z,993.16
2016-02-06T06:55:00.552Z,993.14
2016-02-06T06:56:00.556Z,993.22
2016-02-06T06:57:00.559Z,993.22
2016-02-06T06:58:00.546Z,993.28
2016-02-06T06:59:00.532Z,993.27
2016-02-06T07:00:00.551Z,993.27
2016-02-06T07:01:00.532Z,993.25
2016-02-06T07:02:00.520Z,993.24
2016-02-06T07:03:00.523Z,993.28
2016-02-06T07:04:00.528Z,993.28
2016-02-06T07:05:00.530Z,993.29
2016-02-06T07:06:00.517Z,993.28
2016-02-06T07:07:00.504Z,993.26
2016-02-06T07:08:00.508Z,993.18
2016-02-06T07:09:00.495Z,993.19
2016-02-06T07:10:00.482Z,993.17
2016-02-06T07:11:00.484Z,993.2
2016-02-06T07:12:00.472Z,993.17
2016-02-06T07:13:00.475Z,993.15
2016-02-06T07:14:00.463Z,993.17
2016-02-06T07:15:00.465Z,993.2
2016-02-06T07:16:00.467Z,993.18
2016-02-06T07:17:00.454Z,993.17
2016-02-06T07:18:00.457Z,993.21
2016-02-06T07:19:00.445Z,993.18
2016-02-06T07:20:00.448Z,993.22
2016-02-06T07:21:00.434Z,993.15
2016-02-06T07:22:00.438Z,993.22
2016-02-06T07:23:00.424Z,993.22
2016-02-06T07:24:00.428Z,993.28
2016-02-06T07:25:00.415Z,993.3
2016-02-06T07:26:00.418Z,993.35
2016-02-06T07:27:00.424Z,993.4
2016-02-06T07:28:00.426Z,993.4
2016-02-06T07:29:00.413Z,993.43
2016-02-06T07:30:00.418Z,993.47
2016-02-06T07:31:00.389Z,993.46
2016-02-06T07:32:00.406Z,993.46
2016-02-06T07:33:00.398Z,993.44
2016-02-06T07:34:00.385Z,993.41
2016-02-06T07:35:00.388Z,993.46
2016-02-06T07:36:00.375Z,993.49
2016-02-06T07:37:00.377Z,993.39
2016-02-06T07:38:00.365Z,993.39
2016-02-06T07:39:00.368Z,993.44
2016-02-06T07:40:00.370Z,993.43
2016-02-06T07:41:00.373Z,993.47
2016-02-06T07:42:00.360Z,993.51
2016-02-06T07:43:00.362Z,993.46
2016-02-06T07:44:00.365Z,993.52
2016-02-06T07:45:00.341Z,993.47
2016-02-06T07:46:00.343Z,993.51
2016-02-06T07:47:00.346Z,993.53
2016-02-06T07:48:00.333Z,993.49
2016-02-06T07:49:00.335Z,993.45
2016-02-06T07:50:00.341Z,993.44
2016-02-06T07:51:00.329Z,993.39
2016-02-06T07:52:00.318Z,993.41
2016-02-06T07:53:00.288Z,993.38
2016-02-06T07:54:00.274Z,993.38
2016-02-06T07:55:00.262Z,993.35
2016-02-06T07:56:00.232Z,993.41
2016-02-06T07:57:00.226Z,993.31
2016-02-06T07:58:00.223Z,993.35
2016-02-06T07:59:00.219Z,993.32
2016-02-06T08:00:00.204Z,993.29
2016-02-06T08:01:00.201Z,993.28
2016-02-06T08:02:00.185Z,993.28
2016-02-06T08:03:00.203Z,993.37
2016-02-06T08:04:00.189Z,993.32
2016-02-06T08:05:00.175Z,993.29
2016-02-06T08:06:00.176Z,993.3
2016-02-06T08:07:00.162Z,993.29
2016-02-06T08:08:00.166Z,993.29
2016-02-06T08:09:00.168Z,993.28
2016-02-06T08:10:00.170Z,993.3
2016-02-06T08:11:00.156Z,993.25
2016-02-06T08:12:00.174Z,993.26
2016-02-06T08:13:00.160Z,993.27
2016-02-06T08:14:00.147Z,993.29
2016-02-06T08:15:00.165Z,993.22
2016-02-06T08:16:00.137Z,993.22
2016-02-06T08:17:00.154Z,993.21
2016-02-06T08:18:00.142Z,993.23
2016-02-06T08:19:00.144Z,993.22
2016-02-06T08:20:00.156Z,993.17
2016-02-06T08:21:00.145Z,993.16
2016-02-06T08:22:00.625Z,993.17
2016-02-06T08:23:00.157Z,993.1
2016-02-06T08:24:00.238Z,993.08
2016-02-06T08:25:00.130Z,993.11
2016-02-06T08:26:00.134Z,993.11
2016-02-06T08:27:00.136Z,993.15
2016-02-06T08:28:00.233Z,993.1
2016-02-06T08:29:00.126Z,993.1
2016-02-06T08:30:00.129Z,993.08
2016-02-06T08:31:00.132Z,993.04
2016-02-06T08:32:00.141Z,993
2016-02-06T08:33:00.127Z,993.05
2016-02-06T08:34:00.129Z,992.97
2016-02-06T08:35:00.133Z,992.96
2016-02-06T08:36:00.120Z,992.93
2016-02-06T08:37:00.122Z,993
2016-02-06T08:38:00.125Z,992.95
2016-02-06T08:39:00.143Z,992.92
2016-02-06T08:40:00.130Z,992.97
2016-02-06T08:41:00.149Z,992.95
2016-02-06T08:42:00.130Z,992.96
2016-02-06T08:43:00.132Z,992.87
2016-02-06T08:44:00.134Z,992.87
2016-02-06T08:45:00.137Z,992.77
2016-02-06T08:46:00.125Z,992.88
2016-02-06T08:47:00.130Z,992.83
2016-02-06T08:48:00.133Z,992.82
2016-02-06T08:49:00.135Z,992.84
2016-02-06T08:50:00.122Z,992.84
2016-02-06T08:51:00.125Z,992.83
2016-02-06T08:52:00.129Z,992.81
2016-02-06T08:53:00.132Z,992.82
2016-02-06T08:54:00.135Z,992.83
2016-02-06T08:55:00.125Z,992.77
2016-02-06T08:56:00.128Z,992.79
2016-02-06T08:57:00.131Z,992.81
2016-02-06T08:58:00.133Z,992.76
2016-02-06T08:59:00.136Z,992.74
2016-02-06T09:00:00.139Z,992.72
2016-02-06T09:01:00.141Z,992.75
2016-02-06T09:02:00.133Z,992.74
2016-02-06T09:03:00.136Z,992.75
2016-02-06T09:04:00.127Z,992.69
2016-02-06T09:05:00.135Z,992.67
2016-02-06T09:06:00.138Z,992.79
2016-02-06T09:07:00.142Z,992.75
2016-02-06T09:08:00.128Z,992.79
2016-02-06T09:09:00.131Z,992.79
2016-02-06T09:10:00.135Z,992.7
2016-02-06T09:11:00.138Z,992.73
2016-02-06T09:12:00.140Z,992.66
2016-02-06T09:13:00.143Z,992.69
2016-02-06T09:14:00.145Z,992.67
2016-02-06T09:15:00.134Z,992.64
2016-02-06T09:16:00.136Z,992.57
2016-02-06T09:17:00.140Z,992.59
2016-02-06T09:18:00.127Z,992.53
2016-02-06T09:19:00.129Z,992.53
2016-02-06T09:20:00.121Z,992.52
2016-02-06T09:21:00.125Z,992.52
2016-02-06T09:22:00.127Z,992.5
2016-02-06T09:23:00.130Z,992.51
2016-02-06T09:24:00.118Z,992.45
2016-02-06T09:25:00.121Z,992.37
2016-02-06T09:26:00.124Z,992.36
2016-02-06T09:27:00.127Z,992.41
2016-02-06T09:28:00.145Z,992.34
2016-02-06T09:29:00.117Z,992.31
2016-02-06T09:30:00.120Z,992.31
2016-02-06T09:31:00.123Z,992.34
2016-02-06T09:32:00.125Z,992.3
2016-02-06T09:33:00.113Z,992.32
2016-02-06T09:34:00.115Z,992.31
2016-02-06T09:35:00.118Z,992.3
2016-02-06T09:36:00.122Z,992.35
2016-02-06T09:37:00.124Z,992.42
2016-02-06T09:38:00.112Z,992.41
2016-02-06T09:39:00.130Z,992.4
2016-02-06T09:40:00.117Z,992.37
2016-02-06T09:41:00.121Z,992.41
2016-02-06T09:42:00.123Z,992.42
2016-02-06T09:43:00.126Z,992.43
2016-02-06T09:44:00.130Z,992.48
2016-02-06T09:45:00.117Z,992.43
2016-02-06T09:46:00.119Z,992.47
2016-02-06T09:47:00.122Z,992.46
2016-02-06T09:48:00.125Z,992.41
2016-02-06T09:49:00.128Z,992.39
2016-02-06T09:50:00.130Z,992.35
2016-02-06T09:51:00.118Z,992.3
2016-02-06T09:52:00.120Z,992.28
2016-02-06T09:53:00.124Z,992.29
2016-02-06T09:54:00.126Z,992.31
2016-02-06T09:55:00.129Z,992.26
2016-02-06T09:56:00.131Z,992.21
2016-02-06T09:57:00.150Z,992.21
2016-02-06T09:58:00.137Z,992.24
2016-02-06T09:59:00.139Z,992.27
2016-02-06T10:00:00.127Z,992.24
2016-02-06T10:01:00.130Z,992.26
2016-02-06T10:02:00.132Z,992.21
2016-02-06T10:03:00.142Z,992.21
2016-02-06T10:04:00.144Z,992.16
2016-02-06T10:05:00.132Z,992.16
2016-02-06T10:06:00.135Z,992.17
2016-02-06T10:07:00.137Z,992.16
2016-02-06T10:08:00.140Z,992.1
2016-02-06T10:09:00.144Z,992.11
2016-02-06T10:10:00.146Z,992.12
2016-02-06T10:11:00.149Z,992.12
2016-02-06T10:12:00.166Z,992.1
2016-02-06T10:13:00.154Z,992.16
2016-02-06T10:14:00.157Z,992.16
2016-02-06T10:15:00.145Z,992.14
2016-02-06T10:16:00.147Z,992.21
2016-02-06T10:17:00.153Z,992.18
2016-02-06T10:18:00.172Z,992.28
2016-02-06T10:19:00.159Z,992.24
2016-02-06T10:20:00.161Z,992.23
2016-02-06T10:21:00.163Z,992.31
2016-02-06T10:22:00.170Z,992.29
2016-02-06T10:23:00.268Z,992.32
2016-02-06T10:24:00.176Z,992.32
2016-02-06T10:25:00.179Z,992.27
2016-02-06T10:26:00.181Z,992.27
2016-02-06T10:27:00.167Z,992.25
2016-02-06T10:28:00.171Z,992.22
2016-02-06T10:29:00.190Z,992.23
2016-02-06T10:30:00.177Z,992.17
2016-02-06T10:31:00.196Z,992.12
2016-02-06T10:32:00.200Z,992.15
2016-02-06T10:33:00.186Z,992.12
2016-02-06T10:34:00.189Z,992.12
2016-02-06T10:35:00.208Z,992.14
2016-02-06T10:36:00.195Z,992.09
2016-02-06T10:37:00.198Z,992.04
2016-02-06T10:38:00.201Z,992.02
2016-02-06T10:39:00.203Z,991.97
2016-02-06T10:40:00.222Z,991.97
2016-02-06T10:41:00.208Z,991.92
2016-02-06T10:42:00.227Z,991.91
2016-02-06T10:43:00.215Z,991.9
2016-02-06T10:44:00.234Z,991.85
2016-02-06T10:45:00.220Z,991.84
2016-02-06T10:46:00.239Z,991.92
2016-02-06T10:47:00.225Z,991.88
2016-02-06T10:48:00.248Z,991.83
2016-02-06T10:49:00.236Z,991.81
2016-02-06T10:50:00.238Z,991.72
2016-02-06T10:51:00.429Z,991.77
2016-02-06T10:52:00.244Z,991.75
2016-02-06T10:53:00.262Z,991.73
2016-02-06T10:54:00.266Z,991.69
2016-02-06T10:55:00.268Z,991.65
2016-02-06T10:56:00.272Z,991.67
2016-02-06T10:57:00.274Z,991.67
2016-02-06T10:58:00.277Z,991.63
2016-02-06T10:59:00.280Z,991.63
2016-02-06T11:00:00.302Z,991.66
2016-02-06T11:01:00.367Z,991.63
2016-02-06T11:02:00.370Z,991.57
2016-02-06T11:03:00.295Z,991.5
2016-02-06T11:04:00.314Z,991.46
2016-02-06T11:05:00.301Z,991.43
2016-02-06T11:06:00.304Z,991.41
2016-02-06T11:07:00.321Z,991.4
2016-02-06T11:08:00.324Z,991.35
2016-02-06T11:09:00.315Z,991.36
2016-02-06T11:10:00.318Z,991.29
2016-02-06T11:11:00.336Z,991.28
2016-02-06T11:12:00.324Z,991.22
2016-02-06T11:13:00.341Z,991.18
2016-02-06T11:14:00.344Z,991.18
2016-02-06T11:15:00.347Z,991.18
2016-02-06T11:16:00.350Z,991.16
2016-02-06T11:17:00.368Z,991.14
2016-02-06T11:18:00.371Z,991.16
2016-02-06T11:19:00.373Z,991.17
2016-02-06T11:20:00.377Z,991.17
2016-02-06T11:21:00.363Z,991.13
2016-02-06T11:22:00.366Z,991.14
2016-02-06T11:23:00.384Z,991.12
2016-02-06T11:24:00.388Z,991.04
2016-02-06T11:25:00.391Z,990.98
2016-02-06T11:26:00.394Z,990.97
2016-02-06T11:27:00.396Z,991.03
2016-02-06T11:28:00.411Z,990.98
2016-02-06T11:29:00.413Z,990.99
2016-02-06T11:30:00.404Z,990.94
2016-02-06T11:31:00.406Z,991
2016-02-06T11:32:00.409Z,990.94
2016-02-06T11:33:00.411Z,990.87
2016-02-06T11:34:00.445Z,990.76
2016-02-06T11:35:00.433Z,990.8
2016-02-06T11:36:00.451Z,990.82
2016-02-06T11:37:00.442Z,990.78
2016-02-06T11:38:00.444Z,990.71
2016-02-06T11:39:00.433Z,990.71
2016-02-06T11:40:00.451Z,990.74
2016-02-06T11:41:00.453Z,990.71
2016-02-06T11:42:00.456Z,990.76
2016-02-06T11:43:00.458Z,990.6
2016-02-06T11:44:00.461Z,990.68
2016-02-06T11:45:00.464Z,990.71
2016-02-06T11:46:00.467Z,990.66
2016-02-06T11:47:00.469Z,990.54
2016-02-06T11:48:00.471Z,990.49
2016-02-06T11:49:00.475Z,990.49
2016-02-06T11:50:00.494Z,990.42
2016-02-06T11:51:00.497Z,990.46
2016-02-06T11:52:00.500Z,990.49
2016-02-06T11:53:00.518Z,990.35
2016-02-06T11:54:00.505Z,990.35
2016-02-06T11:55:00.524Z,990.38
2016-02-06T11:56:00.526Z,990.36
2016-02-06T11:57:00.529Z,990.32
2016-02-06T11:58:00.532Z,990.33
2016-02-06T11:59:00.535Z,990.35
2016-02-06T12:00:00.539Z,990.23
2016-02-06T12:01:00.542Z,990.25
2016-02-06T12:02:00.544Z,990.17
2016-02-06T12:03:00.547Z,990.25
2016-02-06T12:04:00.566Z,990.19
2016-02-06T12:05:00.553Z,990.19
2016-02-06T12:06:00.571Z,990.18
2016-02-06T12:07:00.574Z,990.08
2016-02-06T12:08:00.577Z,990.1
2016-02-06T12:09:00.580Z,990.1
2016-02-06T12:10:00.583Z,990.03
2016-02-06T12:11:00.589Z,990.03
2016-02-06T12:12:00.607Z,989.95
2016-02-06T12:13:00.625Z,990.03
2016-02-06T12:14:00.612Z,989.99
2016-02-06T12:15:00.615Z,989.98
2016-02-06T12:16:00.623Z,989.98
2016-02-06T12:17:00.626Z,989.89
2016-02-06T12:18:00.628Z,989.92
2016-02-06T12:19:00.632Z,989.89
2016-02-06T12:20:00.650Z,989.93
2016-02-06T12:21:00.653Z,989.91
2016-02-06T12:22:00.655Z,990.01
2016-02-06T12:23:00.658Z,989.89
2016-02-06T12:24:00.678Z,989.94
2016-02-06T12:25:00.666Z,989.8
2016-02-06T12:26:00.684Z,989.85
2016-02-06T12:27:00.687Z,989.92
2016-02-06T12:28:00.689Z,989.83
2016-02-06T12:29:00.709Z,989.83
2016-02-06T12:30:00.697Z,989.86
2016-02-06T12:31:00.714Z,989.74